Terminal Aerodrome Forecast
Issued by NWS Kansas City/Pleasant Hill, MO

Home | Current Version | Previous Version | Text Only | Print | Product List | Glossary On
Versions: 1 2 3 4 5 6 7 8 9 10 11 12 13 14 15 16 17 18 19 20
000
FTUS43 KEAX 250900 AAB
TAFMCI
TAF AMD
KMCI 250959Z 2510/2606 22008KT P6SM FEW008 BKN018
     FM251200 21008KT P6SM VCSH OVC008
     FM251600 18013G22KT P6SM BKN060
     FM252300 18010KT P6SM SCT060 BKN250=

USA.gov is the U.S. government's official web portal to all federal, state and local government web resources and services.